sensor_id;sensor_type;location;lat;lon;timestamp;P1;durP1;ratioP1;P2;durP2;ratioP2
7279;SDS011;3681;52.254;10.532;2022-07-29T00:00:29;3.50;;;0.67;;
7279;SDS011;3681;52.254;10.532;2022-07-29T00:03:51;2.33;;;0.63;;
7279;SDS011;3681;52.254;10.532;2022-07-29T00:07:14;5.67;;;0.83;;
7279;SDS011;3681;52.254;10.532;2022-07-29T00:10:36;14.43;;;0.80;;
7279;SDS011;3681;52.254;10.532;2022-07-29T00:13:57;1.70;;;0.60;;
7279;SDS011;3681;52.254;10.532;2022-07-29T00:17:25;4.47;;;0.70;;
7279;SDS011;3681;52.254;10.532;2022-07-29T00:20:46;5.17;;;0.87;;
7279;SDS011;3681;52.254;10.532;2022-07-29T00:24:07;6.93;;;0.87;;
7279;SDS011;3681;52.254;10.532;2022-07-29T00:27:29;6.13;;;0.50;;
7279;SDS011;3681;52.254;10.532;2022-07-29T00:30:50;3.33;;;0.70;;
7279;SDS011;3681;52.254;10.532;2022-07-29T00:34:13;3.40;;;1.17;;
7279;SDS011;3681;52.254;10.532;2022-07-29T00:37:49;2.20;;;0.60;;
7279;SDS011;3681;52.254;10.532;2022-07-29T00:41:10;2.77;;;0.70;;
7279;SDS011;3681;52.254;10.532;2022-07-29T00:44:35;5.50;;;1.00;;
7279;SDS011;3681;52.254;10.532;2022-07-29T00:47:57;2.97;;;0.50;;
7279;SDS011;3681;52.254;10.532;2022-07-29T00:51:19;4.80;;;0.67;;
7279;SDS011;3681;52.254;10.532;2022-07-29T00:54:41;2.43;;;0.77;;
7279;SDS011;3681;52.254;10.532;2022-07-29T00:58:04;1.57;;;0.60;;
7279;SDS011;3681;52.254;10.532;2022-07-29T01:01:27;1.13;;;0.50;;
7279;SDS011;3681;52.254;10.532;2022-07-29T01:04:49;3.73;;;0.63;;
7279;SDS011;3681;52.254;10.532;2022-07-29T01:08:14;7.10;;;1.00;;
7279;SDS011;3681;52.254;10.532;2022-07-29T01:11:36;3.03;;;0.97;;
7279;SDS011;3681;52.254;10.532;2022-07-29T01:14:58;2.27;;;0.50;;
7279;SDS011;3681;52.254;10.532;2022-07-29T01:18:22;3.10;;;0.50;;
7279;SDS011;3681;52.254;10.532;2022-07-29T01:21:50;7.30;;;1.40;;
7279;SDS011;3681;52.254;10.532;2022-07-29T01:25:19;5.23;;;0.67;;
7279;SDS011;3681;52.254;10.532;2022-07-29T01:29:02;5.70;;;0.70;;
7279;SDS011;3681;52.254;10.532;2022-07-29T01:32:28;5.70;;;0.70;;
7279;SDS011;3681;52.254;10.532;2022-07-29T01:35:52;13.33;;;1.00;;
7279;SDS011;3681;52.254;10.532;2022-07-29T01:39:16;2.23;;;0.63;;
7279;SDS011;3681;52.254;10.532;2022-07-29T01:42:48;9.20;;;0.73;;
7279;SDS011;3681;52.254;10.532;2022-07-29T01:46:13;3.23;;;0.57;;
7279;SDS011;3681;52.254;10.532;2022-07-29T01:49:41;3.07;;;0.67;;
7279;SDS011;3681;52.254;10.532;2022-07-29T01:53:08;3.80;;;0.70;;
7279;SDS011;3681;52.254;10.532;2022-07-29T01:56:32;1.27;;;0.50;;
7279;SDS011;3681;52.254;10.532;2022-07-29T01:59:57;6.50;;;0.90;;
7279;SDS011;3681;52.254;10.532;2022-07-29T02:03:33;8.00;;;1.00;;
7279;SDS011;3681;52.254;10.532;2022-07-29T02:06:58;2.47;;;1.10;;
7279;SDS011;3681;52.254;10.532;2022-07-29T02:10:22;7.20;;;1.17;;
7279;SDS011;3681;52.254;10.532;2022-07-29T02:13:47;3.10;;;0.80;;
7279;SDS011;3681;52.254;10.532;2022-07-29T02:17:09;5.40;;;0.80;;
7279;SDS011;3681;52.254;10.532;2022-07-29T02:20:34;5.93;;;0.80;;
7279;SDS011;3681;52.254;10.532;2022-07-29T02:23:57;1.10;;;0.73;;
7279;SDS011;3681;52.254;10.532;2022-07-29T02:27:21;3.80;;;0.47;;
7279;SDS011;3681;52.254;10.532;2022-07-29T02:30:45;5.53;;;0.50;;
7279;SDS011;3681;52.254;10.532;2022-07-29T02:34:10;2.67;;;0.63;;
7279;SDS011;3681;52.254;10.532;2022-07-29T02:37:39;1.57;;;0.60;;
7279;SDS011;3681;52.254;10.532;2022-07-29T02:41:03;9.37;;;0.90;;
7279;SDS011;3681;52.254;10.532;2022-07-29T02:44:27;5.77;;;0.70;;
7279;SDS011;3681;52.254;10.532;2022-07-29T02:47:53;10.50;;;0.80;;
7279;SDS011;3681;52.254;10.532;2022-07-29T02:51:19;6.20;;;0.87;;
7279;SDS011;3681;52.254;10.532;2022-07-29T02:55:06;2.93;;;0.97;;
7279;SDS011;3681;52.254;10.532;2022-07-29T02:58:37;5.30;;;1.00;;
7279;SDS011;3681;52.254;10.532;2022-07-29T03:02:01;2.43;;;0.63;;
7279;SDS011;3681;52.254;10.532;2022-07-29T03:05:24;8.93;;;0.80;;
7279;SDS011;3681;52.254;10.532;2022-07-29T03:08:46;5.07;;;0.77;;
7279;SDS011;3681;52.254;10.532;2022-07-29T03:12:09;5.70;;;0.70;;
7279;SDS011;3681;52.254;10.532;2022-07-29T03:15:31;1.57;;;0.60;;
7279;SDS011;3681;52.254;10.532;2022-07-29T03:18:53;7.33;;;0.60;;
7279;SDS011;3681;52.254;10.532;2022-07-29T03:22:15;6.50;;;0.87;;
7279;SDS011;3681;52.254;10.532;2022-07-29T03:25:38;1.47;;;0.60;;
7279;SDS011;3681;52.254;10.532;2022-07-29T03:29:00;8.53;;;1.30;;
7279;SDS011;3681;52.254;10.532;2022-07-29T03:32:22;2.90;;;0.93;;
7279;SDS011;3681;52.254;10.532;2022-07-29T03:35:44;10.80;;;0.90;;
7279;SDS011;3681;52.254;10.532;2022-07-29T03:39:05;2.03;;;0.70;;
7279;SDS011;3681;52.254;10.532;2022-07-29T03:42:30;2.10;;;0.80;;
7279;SDS011;3681;52.254;10.532;2022-07-29T03:45:56;2.67;;;0.80;;
7279;SDS011;3681;52.254;10.532;2022-07-29T03:49:19;6.90;;;0.77;;
7279;SDS011;3681;52.254;10.532;2022-07-29T03:52:43;4.53;;;1.37;;
7279;SDS011;3681;52.254;10.532;2022-07-29T03:56:04;6.73;;;0.80;;
7279;SDS011;3681;52.254;10.532;2022-07-29T03:59:27;8.07;;;0.90;;
7279;SDS011;3681;52.254;10.532;2022-07-29T04:02:53;2.83;;;0.50;;
7279;SDS011;3681;52.254;10.532;2022-07-29T04:06:15;7.90;;;0.87;;
7279;SDS011;3681;52.254;10.532;2022-07-29T04:09:37;7.30;;;1.10;;
7279;SDS011;3681;52.254;10.532;2022-07-29T04:12:59;3.03;;;0.80;;
7279;SDS011;3681;52.254;10.532;2022-07-29T04:16:21;6.73;;;1.03;;
7279;SDS011;3681;52.254;10.532;2022-07-29T04:19:43;4.37;;;1.30;;
7279;SDS011;3681;52.254;10.532;2022-07-29T04:23:05;7.73;;;0.97;;
7279;SDS011;3681;52.254;10.532;2022-07-29T04:26:27;4.80;;;0.83;;
7279;SDS011;3681;52.254;10.532;2022-07-29T04:29:48;8.00;;;0.97;;
7279;SDS011;3681;52.254;10.532;2022-07-29T04:33:16;8.27;;;1.00;;
7279;SDS011;3681;52.254;10.532;2022-07-29T04:36:38;4.70;;;1.23;;
7279;SDS011;3681;52.254;10.532;2022-07-29T04:40:00;7.50;;;1.00;;
7279;SDS011;3681;52.254;10.532;2022-07-29T04:43:21;6.03;;;1.37;;
7279;SDS011;3681;52.254;10.532;2022-07-29T04:46:43;21.77;;;3.47;;
7279;SDS011;3681;52.254;10.532;2022-07-29T04:50:06;5.37;;;1.07;;
7279;SDS011;3681;52.254;10.532;2022-07-29T04:53:29;21.37;;;4.03;;
7279;SDS011;3681;52.254;10.532;2022-07-29T04:56:51;26.20;;;4.73;;
7279;SDS011;3681;52.254;10.532;2022-07-29T05:00:13;7.87;;;1.80;;
7279;SDS011;3681;52.254;10.532;2022-07-29T05:03:34;8.30;;;1.20;;
7279;SDS011;3681;52.254;10.532;2022-07-29T05:06:55;8.13;;;1.40;;
7279;SDS011;3681;52.254;10.532;2022-07-29T05:10:18;6.47;;;1.53;;
7279;SDS011;3681;52.254;10.532;2022-07-29T05:13:39;8.27;;;1.40;;
7279;SDS011;3681;52.254;10.532;2022-07-29T05:17:05;5.27;;;1.00;;
7279;SDS011;3681;52.254;10.532;2022-07-29T05:20:26;7.87;;;1.30;;
7279;SDS011;3681;52.254;10.532;2022-07-29T05:23:49;5.17;;;1.20;;
7279;SDS011;3681;52.254;10.532;2022-07-29T05:27:12;6.03;;;1.60;;
7279;SDS011;3681;52.254;10.532;2022-07-29T05:30:33;5.57;;;1.27;;
7279;SDS011;3681;52.254;10.532;2022-07-29T05:33:54;9.13;;;1.77;;
7279;SDS011;3681;52.254;10.532;2022-07-29T05:37:15;5.97;;;1.30;;
7279;SDS011;3681;52.254;10.532;2022-07-29T05:40:37;4.60;;;1.60;;
7279;SDS011;3681;52.254;10.532;2022-07-29T05:43:59;4.03;;;1.30;;
7279;SDS011;3681;52.254;10.532;2022-07-29T05:47:20;2.83;;;1.17;;
7279;SDS011;3681;52.254;10.532;2022-07-29T05:50:42;2.47;;;1.10;;
7279;SDS011;3681;52.254;10.532;2022-07-29T05:54:06;6.83;;;1.60;;
7279;SDS011;3681;52.254;10.532;2022-07-29T05:57:28;6.43;;;1.23;;
7279;SDS011;3681;52.254;10.532;2022-07-29T06:00:51;18.70;;;1.23;;
7279;SDS011;3681;52.254;10.532;2022-07-29T06:04:13;9.80;;;1.73;;
7279;SDS011;3681;52.254;10.532;2022-07-29T06:07:34;6.33;;;1.60;;
7279;SDS011;3681;52.254;10.532;2022-07-29T06:10:58;8.87;;;1.20;;
7279;SDS011;3681;52.254;10.532;2022-07-29T06:14:19;6.60;;;1.30;;
7279;SDS011;3681;52.254;10.532;2022-07-29T06:17:41;6.10;;;1.30;;
7279;SDS011;3681;52.254;10.532;2022-07-29T06:21:20;15.07;;;1.83;;
7279;SDS011;3681;52.254;10.532;2022-07-29T06:24:41;4.97;;;1.50;;
7279;SDS011;3681;52.254;10.532;2022-07-29T06:28:03;10.07;;;1.87;;
7279;SDS011;3681;52.254;10.532;2022-07-29T06:31:25;5.03;;;1.67;;
7279;SDS011;3681;52.254;10.532;2022-07-29T06:34:48;4.13;;;1.83;;
7279;SDS011;3681;52.254;10.532;2022-07-29T06:38:10;3.20;;;1.30;;
7279;SDS011;3681;52.254;10.532;2022-07-29T06:41:51;6.40;;;1.53;;
7279;SDS011;3681;52.254;10.532;2022-07-29T06:45:17;8.23;;;2.00;;
7279;SDS011;3681;52.254;10.532;2022-07-29T06:48:38;5.23;;;1.90;;
7279;SDS011;3681;52.254;10.532;2022-07-29T06:52:01;4.87;;;1.70;;
7279;SDS011;3681;52.254;10.532;2022-07-29T06:55:23;4.73;;;1.70;;
7279;SDS011;3681;52.254;10.532;2022-07-29T06:58:44;6.07;;;2.03;;
7279;SDS011;3681;52.254;10.532;2022-07-29T07:02:06;7.00;;;1.83;;
7279;SDS011;3681;52.254;10.532;2022-07-29T07:05:27;6.30;;;1.73;;
7279;SDS011;3681;52.254;10.532;2022-07-29T07:08:50;8.17;;;1.90;;
7279;SDS011;3681;52.254;10.532;2022-07-29T07:12:12;7.57;;;1.53;;
7279;SDS011;3681;52.254;10.532;2022-07-29T07:15:33;4.03;;;1.47;;
7279;SDS011;3681;52.254;10.532;2022-07-29T07:18:59;2.43;;;1.73;;
7279;SDS011;3681;52.254;10.532;2022-07-29T07:22:20;3.77;;;1.53;;
7279;SDS011;3681;52.254;10.532;2022-07-29T07:25:42;10.57;;;2.03;;
7279;SDS011;3681;52.254;10.532;2022-07-29T07:29:04;5.23;;;2.40;;
7279;SDS011;3681;52.254;10.532;2022-07-29T07:32:25;7.90;;;1.50;;
7279;SDS011;3681;52.254;10.532;2022-07-29T07:35:46;18.63;;;2.00;;
7279;SDS011;3681;52.254;10.532;2022-07-29T07:39:07;8.67;;;1.70;;
7279;SDS011;3681;52.254;10.532;2022-07-29T07:42:30;6.57;;;2.28;;
7279;SDS011;3681;52.254;10.532;2022-07-29T07:45:51;6.77;;;2.10;;
7279;SDS011;3681;52.254;10.532;2022-07-29T07:49:13;8.32;;;1.73;;
7279;SDS011;3681;52.254;10.532;2022-07-29T07:52:40;8.80;;;2.05;;
7279;SDS011;3681;52.254;10.532;2022-07-29T07:56:07;5.78;;;1.75;;
7279;SDS011;3681;52.254;10.532;2022-07-29T07:59:32;9.65;;;2.22;;
7279;SDS011;3681;52.254;10.532;2022-07-29T08:02:53;5.57;;;1.70;;
7279;SDS011;3681;52.254;10.532;2022-07-29T08:06:15;24.33;;;2.13;;
7279;SDS011;3681;52.254;10.532;2022-07-29T08:09:36;40.15;;;4.30;;
7279;SDS011;3681;52.254;10.532;2022-07-29T08:12:57;11.93;;;2.33;;
7279;SDS011;3681;52.254;10.532;2022-07-29T08:16:20;6.60;;;1.80;;
7279;SDS011;3681;52.254;10.532;2022-07-29T08:19:42;10.32;;;1.67;;
7279;SDS011;3681;52.254;10.532;2022-07-29T08:23:05;5.10;;;1.88;;
7279;SDS011;3681;52.254;10.532;2022-07-29T08:26:28;5.82;;;2.10;;
7279;SDS011;3681;52.254;10.532;2022-07-29T08:29:49;8.32;;;2.25;;
7279;SDS011;3681;52.254;10.532;2022-07-29T08:33:12;8.55;;;2.63;;
7279;SDS011;3681;52.254;10.532;2022-07-29T08:36:33;29.30;;;2.83;;
7279;SDS011;3681;52.254;10.532;2022-07-29T08:39:55;12.63;;;2.90;;
7279;SDS011;3681;52.254;10.532;2022-07-29T08:43:18;8.40;;;1.50;;
7279;SDS011;3681;52.254;10.532;2022-07-29T08:46:39;5.93;;;1.83;;
7279;SDS011;3681;52.254;10.532;2022-07-29T08:50:03;20.85;;;2.78;;
7279;SDS011;3681;52.254;10.532;2022-07-29T08:53:25;11.35;;;2.05;;
7279;SDS011;3681;52.254;10.532;2022-07-29T08:56:48;12.18;;;2.53;;
7279;SDS011;3681;52.254;10.532;2022-07-29T09:00:15;15.18;;;2.13;;
7279;SDS011;3681;52.254;10.532;2022-07-29T09:03:39;7.25;;;1.85;;
7279;SDS011;3681;52.254;10.532;2022-07-29T09:07:03;7.45;;;1.80;;
7279;SDS011;3681;52.254;10.532;2022-07-29T09:10:26;6.35;;;1.75;;
7279;SDS011;3681;52.254;10.532;2022-07-29T09:13:48;10.57;;;1.75;;
7279;SDS011;3681;52.254;10.532;2022-07-29T09:17:09;4.63;;;1.50;;
7279;SDS011;3681;52.254;10.532;2022-07-29T09:20:31;19.45;;;3.13;;
7279;SDS011;3681;52.254;10.532;2022-07-29T09:24:08;3.17;;;1.75;;
7279;SDS011;3681;52.254;10.532;2022-07-29T09:27:30;5.75;;;2.10;;
7279;SDS011;3681;52.254;10.532;2022-07-29T09:30:54;8.57;;;2.30;;
7279;SDS011;3681;52.254;10.532;2022-07-29T09:34:21;5.97;;;2.38;;
7279;SDS011;3681;52.254;10.532;2022-07-29T09:37:44;7.07;;;2.05;;
7279;SDS011;3681;52.254;10.532;2022-07-29T09:41:07;8.63;;;1.90;;
7279;SDS011;3681;52.254;10.532;2022-07-29T09:44:42;9.13;;;2.05;;
7279;SDS011;3681;52.254;10.532;2022-07-29T09:48:12;14.75;;;2.30;;
7279;SDS011;3681;52.254;10.532;2022-07-29T09:51:34;8.25;;;1.98;;
7279;SDS011;3681;52.254;10.532;2022-07-29T09:55:04;4.47;;;1.92;;
7279;SDS011;3681;52.254;10.532;2022-07-29T09:58:27;9.93;;;1.92;;
7279;SDS011;3681;52.254;10.532;2022-07-29T10:01:49;12.82;;;2.05;;
7279;SDS011;3681;52.254;10.532;2022-07-29T10:05:20;10.10;;;2.97;;
7279;SDS011;3681;52.254;10.532;2022-07-29T10:08:43;15.10;;;2.67;;
7279;SDS011;3681;52.254;10.532;2022-07-29T10:12:08;8.15;;;2.30;;
7279;SDS011;3681;52.254;10.532;2022-07-29T10:15:33;7.03;;;2.00;;
7279;SDS011;3681;52.254;10.532;2022-07-29T10:18:57;10.48;;;1.88;;
7279;SDS011;3681;52.254;10.532;2022-07-29T10:22:18;6.32;;;1.95;;
7279;SDS011;3681;52.254;10.532;2022-07-29T10:26:00;9.65;;;1.75;;
7279;SDS011;3681;52.254;10.532;2022-07-29T10:29:22;11.02;;;2.30;;
7279;SDS011;3681;52.254;10.532;2022-07-29T10:32:51;10.25;;;2.03;;
7279;SDS011;3681;52.254;10.532;2022-07-29T10:36:35;8.30;;;2.00;;
7279;SDS011;3681;52.254;10.532;2022-07-29T10:40:07;8.30;;;1.98;;
7279;SDS011;3681;52.254;10.532;2022-07-29T10:43:55;15.85;;;2.30;;
7279;SDS011;3681;52.254;10.532;2022-07-29T10:47:20;9.13;;;2.15;;
7279;SDS011;3681;52.254;10.532;2022-07-29T10:54:38;12.10;;;2.47;;
7279;SDS011;3681;52.254;10.532;2022-07-29T10:58:16;5.47;;;1.90;;
7279;SDS011;3681;52.254;10.532;2022-07-29T11:01:39;6.85;;;1.98;;
7279;SDS011;3681;52.254;10.532;2022-07-29T11:05:12;11.55;;;2.08;;
7279;SDS011;3681;52.254;10.532;2022-07-29T11:08:35;6.32;;;1.75;;
7279;SDS011;3681;52.254;10.532;2022-07-29T11:11:57;6.10;;;2.00;;
7279;SDS011;3681;52.254;10.532;2022-07-29T11:15:24;15.93;;;2.22;;
7279;SDS011;3681;52.254;10.532;2022-07-29T11:19:18;11.05;;;2.38;;
7279;SDS011;3681;52.254;10.532;2022-07-29T11:22:49;12.38;;;2.20;;
7279;SDS011;3681;52.254;10.532;2022-07-29T11:26:14;10.43;;;1.48;;
7279;SDS011;3681;52.254;10.532;2022-07-29T11:29:51;7.05;;;1.70;;
7279;SDS011;3681;52.254;10.532;2022-07-29T11:33:26;4.70;;;1.75;;
7279;SDS011;3681;52.254;10.532;2022-07-29T11:37:18;4.50;;;2.13;;
7279;SDS011;3681;52.254;10.532;2022-07-29T11:44:54;9.68;;;2.25;;
7279;SDS011;3681;52.254;10.532;2022-07-29T11:48:17;8.15;;;2.10;;
7279;SDS011;3681;52.254;10.532;2022-07-29T11:51:51;5.95;;;1.92;;
7279;SDS011;3681;52.254;10.532;2022-07-29T11:55:14;8.02;;;1.70;;
7279;SDS011;3681;52.254;10.532;2022-07-29T11:58:36;3.50;;;1.83;;
7279;SDS011;3681;52.254;10.532;2022-07-29T12:02:01;3.42;;;1.40;;
7279;SDS011;3681;52.254;10.532;2022-07-29T12:05:43;8.65;;;2.13;;
7279;SDS011;3681;52.254;10.532;2022-07-29T12:09:10;3.17;;;2.15;;
7279;SDS011;3681;52.254;10.532;2022-07-29T12:12:33;5.18;;;2.03;;
7279;SDS011;3681;52.254;10.532;2022-07-29T12:15:56;10.77;;;2.40;;
7279;SDS011;3681;52.254;10.532;2022-07-29T12:19:22;9.57;;;2.03;;
7279;SDS011;3681;52.254;10.532;2022-07-29T12:22:44;6.55;;;2.05;;
7279;SDS011;3681;52.254;10.532;2022-07-29T12:26:08;4.40;;;2.00;;
7279;SDS011;3681;52.254;10.532;2022-07-29T12:29:45;4.90;;;1.83;;
7279;SDS011;3681;52.254;10.532;2022-07-29T12:33:11;10.27;;;2.10;;
7279;SDS011;3681;52.254;10.532;2022-07-29T12:36:37;6.28;;;2.53;;
7279;SDS011;3681;52.254;10.532;2022-07-29T12:39:58;4.57;;;2.20;;
7279;SDS011;3681;52.254;10.532;2022-07-29T12:43:22;9.73;;;2.17;;
7279;SDS011;3681;52.254;10.532;2022-07-29T12:46:45;8.07;;;1.90;;
7279;SDS011;3681;52.254;10.532;2022-07-29T12:50:09;5.68;;;1.80;;
7279;SDS011;3681;52.254;10.532;2022-07-29T12:53:32;12.10;;;2.53;;
7279;SDS011;3681;52.254;10.532;2022-07-29T12:56:58;6.38;;;2.20;;
7279;SDS011;3681;52.254;10.532;2022-07-29T13:00:22;9.60;;;2.17;;
7279;SDS011;3681;52.254;10.532;2022-07-29T13:03:44;6.53;;;3.03;;
7279;SDS011;3681;52.254;10.532;2022-07-29T13:07:23;8.27;;;2.40;;
7279;SDS011;3681;52.254;10.532;2022-07-29T13:11:07;6.32;;;2.25;;
7279;SDS011;3681;52.254;10.532;2022-07-29T13:14:32;4.13;;;1.90;;
7279;SDS011;3681;52.254;10.532;2022-07-29T13:17:54;7.30;;;2.00;;
7279;SDS011;3681;52.254;10.532;2022-07-29T13:21:16;14.82;;;2.25;;
7279;SDS011;3681;52.254;10.532;2022-07-29T13:24:44;5.78;;;2.10;;
7279;SDS011;3681;52.254;10.532;2022-07-29T13:28:08;6.20;;;2.10;;
7279;SDS011;3681;52.254;10.532;2022-07-29T13:31:31;5.00;;;2.20;;
7279;SDS011;3681;52.254;10.532;2022-07-29T13:34:54;5.10;;;1.80;;
7279;SDS011;3681;52.254;10.532;2022-07-29T13:38:16;7.30;;;2.22;;
7279;SDS011;3681;52.254;10.532;2022-07-29T13:41:37;6.15;;;2.00;;
7279;SDS011;3681;52.254;10.532;2022-07-29T13:45:00;5.22;;;2.00;;
7279;SDS011;3681;52.254;10.532;2022-07-29T13:48:21;6.32;;;1.80;;
7279;SDS011;3681;52.254;10.532;2022-07-29T13:51:42;6.97;;;2.22;;
7279;SDS011;3681;52.254;10.532;2022-07-29T13:55:04;4.30;;;2.15;;
7279;SDS011;3681;52.254;10.532;2022-07-29T13:58:26;5.53;;;1.98;;
7279;SDS011;3681;52.254;10.532;2022-07-29T14:01:49;5.72;;;2.05;;
7279;SDS011;3681;52.254;10.532;2022-07-29T14:05:10;5.57;;;2.25;;
7279;SDS011;3681;52.254;10.532;2022-07-29T14:08:32;7.40;;;1.90;;
7279;SDS011;3681;52.254;10.532;2022-07-29T14:11:54;12.98;;;3.03;;
7279;SDS011;3681;52.254;10.532;2022-07-29T14:15:18;5.97;;;2.10;;
7279;SDS011;3681;52.254;10.532;2022-07-29T14:18:41;7.45;;;2.30;;
7279;SDS011;3681;52.254;10.532;2022-07-29T14:22:02;7.75;;;2.15;;
7279;SDS011;3681;52.254;10.532;2022-07-29T14:25:23;5.00;;;2.22;;
7279;SDS011;3681;52.254;10.532;2022-07-29T14:28:44;9.07;;;2.13;;
7279;SDS011;3681;52.254;10.532;2022-07-29T14:32:06;9.25;;;2.10;;
7279;SDS011;3681;52.254;10.532;2022-07-29T14:35:29;6.13;;;1.92;;
7279;SDS011;3681;52.254;10.532;2022-07-29T14:38:50;6.45;;;2.15;;
7279;SDS011;3681;52.254;10.532;2022-07-29T14:42:11;4.82;;;1.70;;
7279;SDS011;3681;52.254;10.532;2022-07-29T14:45:33;12.45;;;2.20;;
7279;SDS011;3681;52.254;10.532;2022-07-29T14:48:55;9.23;;;1.83;;
7279;SDS011;3681;52.254;10.532;2022-07-29T14:52:17;9.15;;;2.10;;
7279;SDS011;3681;52.254;10.532;2022-07-29T14:55:39;8.68;;;1.75;;
7279;SDS011;3681;52.254;10.532;2022-07-29T14:59:01;9.27;;;1.73;;
7279;SDS011;3681;52.254;10.532;2022-07-29T15:02:23;7.38;;;1.67;;
7279;SDS011;3681;52.254;10.532;2022-07-29T15:06:04;4.90;;;1.67;;
7279;SDS011;3681;52.254;10.532;2022-07-29T15:09:27;6.15;;;1.60;;
7279;SDS011;3681;52.254;10.532;2022-07-29T15:12:48;3.63;;;1.52;;
7279;SDS011;3681;52.254;10.532;2022-07-29T15:16:09;6.70;;;1.75;;
7279;SDS011;3681;52.254;10.532;2022-07-29T15:19:31;5.63;;;1.92;;
7279;SDS011;3681;52.254;10.532;2022-07-29T15:22:52;9.02;;;1.90;;
7279;SDS011;3681;52.254;10.532;2022-07-29T15:26:16;2.42;;;1.58;;
7279;SDS011;3681;52.254;10.532;2022-07-29T15:29:38;4.35;;;1.55;;
7279;SDS011;3681;52.254;10.532;2022-07-29T15:33:00;10.65;;;1.83;;
7279;SDS011;3681;52.254;10.532;2022-07-29T15:36:23;8.52;;;2.10;;
7279;SDS011;3681;52.254;10.532;2022-07-29T15:40:05;7.53;;;1.90;;
7279;SDS011;3681;52.254;10.532;2022-07-29T15:43:28;3.03;;;1.83;;
7279;SDS011;3681;52.254;10.532;2022-07-29T15:46:49;12.77;;;2.05;;
7279;SDS011;3681;52.254;10.532;2022-07-29T15:50:26;5.35;;;1.73;;
7279;SDS011;3681;52.254;10.532;2022-07-29T15:53:47;5.82;;;1.42;;
7279;SDS011;3681;52.254;10.532;2022-07-29T15:57:13;4.32;;;1.67;;
7279;SDS011;3681;52.254;10.532;2022-07-29T16:00:35;3.80;;;1.88;;
7279;SDS011;3681;52.254;10.532;2022-07-29T16:03:56;3.28;;;1.92;;
7279;SDS011;3681;52.254;10.532;2022-07-29T16:07:18;5.07;;;1.30;;
7279;SDS011;3681;52.254;10.532;2022-07-29T16:10:40;7.82;;;3.03;;
7279;SDS011;3681;52.254;10.532;2022-07-29T16:14:01;6.35;;;1.50;;
7279;SDS011;3681;52.254;10.532;2022-07-29T16:17:26;4.22;;;1.63;;
7279;SDS011;3681;52.254;10.532;2022-07-29T16:20:47;5.68;;;1.95;;
7279;SDS011;3681;52.254;10.532;2022-07-29T16:24:08;7.82;;;2.05;;
7279;SDS011;3681;52.254;10.532;2022-07-29T16:27:30;6.18;;;1.77;;
7279;SDS011;3681;52.254;10.532;2022-07-29T16:30:56;4.47;;;1.73;;
7279;SDS011;3681;52.254;10.532;2022-07-29T16:34:20;8.93;;;1.63;;
7279;SDS011;3681;52.254;10.532;2022-07-29T16:37:41;11.43;;;1.73;;
7279;SDS011;3681;52.254;10.532;2022-07-29T16:41:03;4.47;;;1.60;;
7279;SDS011;3681;52.254;10.532;2022-07-29T16:44:24;3.17;;;1.63;;
7279;SDS011;3681;52.254;10.532;2022-07-29T16:47:48;5.03;;;2.17;;
7279;SDS011;3681;52.254;10.532;2022-07-29T16:51:11;5.05;;;1.85;;
7279;SDS011;3681;52.254;10.532;2022-07-29T16:54:33;7.28;;;1.88;;
7279;SDS011;3681;52.254;10.532;2022-07-29T16:57:55;7.22;;;1.50;;
7279;SDS011;3681;52.254;10.532;2022-07-29T17:01:16;2.25;;;1.30;;
7279;SDS011;3681;52.254;10.532;2022-07-29T17:04:39;7.47;;;2.95;;
7279;SDS011;3681;52.254;10.532;2022-07-29T17:08:01;10.73;;;2.00;;
7279;SDS011;3681;52.254;10.532;2022-07-29T17:11:23;4.05;;;1.35;;
7279;SDS011;3681;52.254;10.532;2022-07-29T17:15:05;6.53;;;1.90;;
7279;SDS011;3681;52.254;10.532;2022-07-29T17:18:28;2.88;;;1.63;;
7279;SDS011;3681;52.254;10.532;2022-07-29T17:21:49;8.48;;;1.70;;
7279;SDS011;3681;52.254;10.532;2022-07-29T17:25:13;6.30;;;1.33;;
7279;SDS011;3681;52.254;10.532;2022-07-29T17:28:39;4.93;;;1.55;;
7279;SDS011;3681;52.254;10.532;2022-07-29T17:32:01;3.00;;;1.42;;
7279;SDS011;3681;52.254;10.532;2022-07-29T17:35:27;4.47;;;1.80;;
7279;SDS011;3681;52.254;10.532;2022-07-29T17:39:06;7.25;;;1.60;;
7279;SDS011;3681;52.254;10.532;2022-07-29T17:42:32;2.08;;;1.40;;
7279;SDS011;3681;52.254;10.532;2022-07-29T17:45:53;3.55;;;1.25;;
7279;SDS011;3681;52.254;10.532;2022-07-29T17:49:18;5.63;;;2.03;;
7279;SDS011;3681;52.254;10.532;2022-07-29T17:52:40;8.40;;;1.83;;
7279;SDS011;3681;52.254;10.532;2022-07-29T17:56:02;9.57;;;1.77;;
7279;SDS011;3681;52.254;10.532;2022-07-29T17:59:26;6.50;;;1.77;;
7279;SDS011;3681;52.254;10.532;2022-07-29T18:02:47;4.32;;;2.15;;
7279;SDS011;3681;52.254;10.532;2022-07-29T18:06:09;4.47;;;1.85;;
7279;SDS011;3681;52.254;10.532;2022-07-29T18:09:30;5.15;;;1.73;;
7279;SDS011;3681;52.254;10.532;2022-07-29T18:12:52;7.95;;;2.10;;
7279;SDS011;3681;52.254;10.532;2022-07-29T18:16:14;5.65;;;1.73;;
7279;SDS011;3681;52.254;10.532;2022-07-29T18:19:37;4.03;;;1.75;;
7279;SDS011;3681;52.254;10.532;2022-07-29T18:22:59;6.50;;;1.67;;
7279;SDS011;3681;52.254;10.532;2022-07-29T18:26:21;6.38;;;1.63;;
7279;SDS011;3681;52.254;10.532;2022-07-29T18:29:49;2.95;;;1.77;;
7279;SDS011;3681;52.254;10.532;2022-07-29T18:33:11;9.25;;;2.00;;
7279;SDS011;3681;52.254;10.532;2022-07-29T18:36:41;7.43;;;2.20;;
7279;SDS011;3681;52.254;10.532;2022-07-29T18:40:02;5.10;;;1.95;;
7279;SDS011;3681;52.254;10.532;2022-07-29T18:43:24;12.73;;;1.92;;
7279;SDS011;3681;52.254;10.532;2022-07-29T18:46:45;7.55;;;1.80;;
7279;SDS011;3681;52.254;10.532;2022-07-29T18:50:08;9.52;;;2.17;;
7279;SDS011;3681;52.254;10.532;2022-07-29T18:53:31;3.40;;;1.75;;
7279;SDS011;3681;52.254;10.532;2022-07-29T18:56:56;7.22;;;1.92;;
7279;SDS011;3681;52.254;10.532;2022-07-29T19:00:17;6.47;;;2.50;;
7279;SDS011;3681;52.254;10.532;2022-07-29T19:03:40;7.25;;;2.15;;
7279;SDS011;3681;52.254;10.532;2022-07-29T19:07:03;6.45;;;2.10;;
7279;SDS011;3681;52.254;10.532;2022-07-29T19:10:24;8.57;;;2.17;;
7279;SDS011;3681;52.254;10.532;2022-07-29T19:13:45;7.43;;;1.77;;
7279;SDS011;3681;52.254;10.532;2022-07-29T19:17:08;5.65;;;1.92;;
7279;SDS011;3681;52.254;10.532;2022-07-29T19:20:29;8.73;;;1.67;;
7279;SDS011;3681;52.254;10.532;2022-07-29T19:23:53;9.18;;;2.28;;
7279;SDS011;3681;52.254;10.532;2022-07-29T19:27:27;6.07;;;1.85;;
7279;SDS011;3681;52.254;10.532;2022-07-29T19:30:48;9.70;;;2.63;;
7279;SDS011;3681;52.254;10.532;2022-07-29T19:34:16;4.50;;;1.92;;
7279;SDS011;3681;52.254;10.532;2022-07-29T19:37:37;6.95;;;2.05;;
7279;SDS011;3681;52.254;10.532;2022-07-29T19:41:00;3.83;;;1.40;;
7279;SDS011;3681;52.254;10.532;2022-07-29T19:44:23;6.75;;;1.45;;
7279;SDS011;3681;52.254;10.532;2022-07-29T19:47:44;6.32;;;2.28;;
7279;SDS011;3681;52.254;10.532;2022-07-29T19:51:05;3.97;;;2.30;;
7279;SDS011;3681;52.254;10.532;2022-07-29T19:54:27;9.25;;;2.90;;
7279;SDS011;3681;52.254;10.532;2022-07-29T19:57:49;11.77;;;2.35;;
7279;SDS011;3681;52.254;10.532;2022-07-29T20:01:11;4.60;;;1.85;;
7279;SDS011;3681;52.254;10.532;2022-07-29T20:04:33;5.18;;;1.92;;
7279;SDS011;3681;52.254;10.532;2022-07-29T20:07:54;6.25;;;1.65;;
7279;SDS011;3681;52.254;10.532;2022-07-29T20:11:16;10.77;;;1.58;;
7279;SDS011;3681;52.254;10.532;2022-07-29T20:14:38;9.50;;;1.83;;
7279;SDS011;3681;52.254;10.532;2022-07-29T20:18:00;3.03;;;1.40;;
7279;SDS011;3681;52.254;10.532;2022-07-29T20:21:21;8.90;;;1.52;;
7279;SDS011;3681;52.254;10.532;2022-07-29T20:24:44;3.65;;;1.60;;
7279;SDS011;3681;52.254;10.532;2022-07-29T20:28:06;3.88;;;1.80;;
7279;SDS011;3681;52.254;10.532;2022-07-29T20:31:29;4.18;;;2.10;;
7279;SDS011;3681;52.254;10.532;2022-07-29T20:34:51;7.85;;;1.75;;
7279;SDS011;3681;52.254;10.532;2022-07-29T20:38:13;7.03;;;2.08;;
7279;SDS011;3681;52.254;10.532;2022-07-29T20:41:38;4.35;;;1.27;;
7279;SDS011;3681;52.254;10.532;2022-07-29T20:45:00;7.15;;;2.08;;
7279;SDS011;3681;52.254;10.532;2022-07-29T20:48:28;2.15;;;1.30;;
7279;SDS011;3681;52.254;10.532;2022-07-29T20:51:49;6.78;;;1.48;;
7279;SDS011;3681;52.254;10.532;2022-07-29T20:55:10;3.35;;;1.60;;